Time;durP1;ratioP1;P1;durP2;ratioP2;P2;SDS_P1;SDS_P2;PMS_P1;PMS_P2;Temp;Humidity;BMP_temperature;BMP_pressure;BME280_temperature;BME280_humidity;BME280_pressure;Samples;Min_cycle;Max_cycle;Signal;HPM_P1;HPM_P2
2021/07/12 00:00:28;;;;;;;18.85;10.48;;;;;;;17.01;82.33;94692.14;1683753;84;21090;-50
2021/07/12 00:02:56;;;;;;;21.97;10.38;;;;;;;16.97;82.39;94690.98;1687530;83;20994;-52
2021/07/12 00:05:24;;;;;;;23.62;10.30;;;;;;;16.92;82.52;94701.39;1688982;83;21432;-51
2021/07/12 00:07:50;;;;;;;19.40;12.03;;;;;;;16.90;82.78;94695.56;1680155;84;21022;-51
2021/07/12 00:10:23;;;;;;;13.18;9.45;;;;;;;16.86;82.91;94692.24;1651089;86;21066;-51
2021/07/12 00:12:52;;;;;;;18.15;9.08;;;;;;;16.82;82.88;94702.03;1688014;83;21640;-51
2021/07/12 00:15:22;;;;;;;15.53;8.85;;;;;;;16.76;82.74;94699.83;1688004;84;21072;-51
2021/07/12 00:17:49;;;;;;;16.17;9.38;;;;;;;16.71;82.76;94697.12;1689515;83;21058;-52
2021/07/12 00:20:18;;;;;;;17.20;9.83;;;;;;;16.68;82.91;94698.70;1682660;84;21043;-51
2021/07/12 00:22:45;;;;;;;17.07;10.35;;;;;;;16.64;82.99;94696.77;1691231;83;21085;-51
2021/07/12 00:25:14;;;;;;;15.93;8.50;;;;;;;16.62;83.11;94699.28;1686794;83;21422;-51
2021/07/12 00:27:40;;;;;;;14.78;7.90;;;;;;;16.59;83.04;94696.09;1667341;85;21068;-50
2021/07/12 00:30:11;;;;;;;22.73;9.20;;;;;;;16.52;83.16;94702.07;1680065;85;21074;-51
2021/07/12 00:32:38;;;;;;;13.50;8.83;;;;;;;16.55;83.49;94698.31;1679932;84;21050;-51
2021/07/12 00:35:09;;;;;;;13.30;8.40;;;;;;;16.57;83.27;94701.38;1692829;83;21062;-51
2021/07/12 00:37:35;;;;;;;10.20;8.08;;;;;;;16.50;83.24;94701.16;1689037;83;20982;-51
2021/07/12 00:40:05;;;;;;;11.20;7.70;;;;;;;16.44;83.21;94700.94;1691832;83;21009;-51
2021/07/12 00:42:32;;;;;;;13.85;8.25;;;;;;;16.44;83.20;94695.39;1687545;83;20980;-50
2021/07/12 00:45:03;;;;;;;11.60;8.60;;;;;;;16.44;83.04;94698.16;1680922;84;21420;-51
2021/07/12 00:47:31;;;;;;;10.05;7.45;;;;;;;16.43;82.93;94699.42;1668535;84;21825;-51
2021/07/12 00:49:57;;;;;;;13.35;8.58;;;;;;;16.41;82.76;94700.53;1691664;83;21073;-51
2021/07/12 00:52:24;;;;;;;10.90;8.08;;;;;;;16.38;82.84;94701.51;1688924;84;21039;-51
2021/07/12 00:54:51;;;;;;;11.10;7.67;;;;;;;16.35;83.02;94703.87;1691954;83;21450;-51
2021/07/12 00:57:18;;;;;;;9.55;7.45;;;;;;;16.31;83.37;94711.59;1668433;84;21027;-50
2021/07/12 00:59:45;;;;;;;12.65;8.35;;;;;;;16.32;83.51;94712.50;1690999;83;21462;-50
2021/07/12 01:02:12;;;;;;;13.13;7.87;;;;;;;16.30;83.53;94708.67;1686202;84;21048;-50
2021/07/12 01:04:39;;;;;;;10.18;7.80;;;;;;;16.23;83.46;94716.03;1683429;83;21007;-52
2021/07/12 01:07:10;;;;;;;9.98;7.90;;;;;;;16.16;83.77;94714.29;1680003;84;21027;-50
2021/07/12 01:09:38;;;;;;;11.83;8.13;;;;;;;16.16;83.85;94712.29;1679519;84;21042;-50
2021/07/12 01:12:16;;;;;;;10.35;7.10;;;;;;;16.20;83.66;94710.67;1680013;84;21070;-50
2021/07/12 01:15:03;;;;;;;11.00;8.18;;;;;;;16.22;83.43;94715.89;1684971;84;20959;-51
2021/07/12 01:18:21;;;;;;;14.93;7.97;;;;;;;16.17;83.36;94715.81;1672040;85;21419;-50
2021/07/12 01:21:08;;;;;;;8.50;6.72;;;;;;;16.11;83.53;94707.41;1682929;84;21058;-51
2021/07/12 01:23:58;;;;;;;11.38;7.53;;;;;;;16.08;83.61;94709.77;1669993;84;21081;-51
2021/07/12 01:27:02;;;;;;;8.38;7.42;;;;;;;16.11;83.41;94712.20;1690521;83;21220;-51
2021/07/12 01:30:09;;;;;;;10.58;8.13;;;;;;;16.07;83.32;94715.17;1676078;84;21063;-52
2021/07/12 01:33:08;;;;;;;13.38;8.13;;;;;;;15.96;83.36;94710.09;1689678;83;21047;-51
2021/07/12 01:36:04;;;;;;;12.47;7.62;;;;;;;15.86;83.66;94708.05;1685350;84;21041;-51
2021/07/12 01:38:46;;;;;;;13.00;7.30;;;;;;;15.85;83.58;94706.53;1683378;83;20962;-51
2021/07/12 01:41:45;;;;;;;15.78;8.10;;;;;;;15.83;83.57;94709.63;1682904;84;21164;-51
2021/07/12 01:44:43;;;;;;;11.93;7.92;;;;;;;15.77;83.85;94715.73;1689946;83;21469;-52
2021/07/12 01:47:15;;;;;;;10.45;7.60;;;;;;;15.76;83.96;94712.17;1696620;83;20962;-51
2021/07/12 01:50:10;;;;;;;15.48;7.35;;;;;;;15.74;83.91;94698.02;1693920;83;21251;-50
2021/07/12 01:53:05;;;;;;;15.35;7.35;;;;;;;15.74;83.67;94708.38;1690029;83;21053;-50
2021/07/12 01:55:59;;;;;;;16.45;8.13;;;;;;;15.76;83.75;94708.02;1680034;83;21101;-51
2021/07/12 01:58:58;;;;;;;13.70;8.50;;;;;;;15.70;83.89;94711.33;1683439;84;21017;-50
2021/07/12 02:01:27;;;;;;;10.82;7.00;;;;;;;15.56;84.19;94708.59;1676901;83;21429;-50
2021/07/12 02:03:55;;;;;;;12.37;7.00;;;;;;;15.47;84.61;94710.06;1690594;83;21018;-51
2021/07/12 02:06:22;;;;;;;21.52;7.67;;;;;;;15.44;84.70;94709.03;1684188;84;20979;-51
2021/07/12 02:08:51;;;;;;;12.00;7.10;;;;;;;15.45;84.85;94713.33;1680152;84;21118;-51
2021/07/12 02:11:19;;;;;;;8.98;7.05;;;;;;;15.48;85.14;94708.20;1687298;84;21499;-51
2021/07/12 02:13:49;;;;;;;8.63;6.55;;;;;;;15.47;84.61;94717.77;1688937;83;21525;-52
2021/07/12 02:16:19;;;;;;;11.35;6.55;;;;;;;15.44;84.52;94713.19;1693907;83;20999;-51
2021/07/12 02:18:47;;;;;;;14.90;7.03;;;;;;;15.42;84.62;94711.52;1669695;84;21086;-50
2021/07/12 02:21:15;;;;;;;9.70;7.37;;;;;;;15.43;84.68;94706.72;1664725;84;21110;-51
2021/07/12 02:23:45;;;;;;;9.45;7.20;;;;;;;15.43;84.68;94715.05;1667522;84;20974;-51
2021/07/12 02:26:14;;;;;;;27.93;8.33;;;;;;;15.42;84.61;94714.91;1682906;84;21016;-50
2021/07/12 02:28:44;;;;;;;23.02;7.75;;;;;;;15.39;84.47;94708.30;1668490;85;21012;-50
2021/07/12 02:31:12;;;;;;;11.93;7.58;;;;;;;15.36;84.52;94713.41;1682426;84;21565;-51
2021/07/12 02:33:41;;;;;;;8.58;7.20;;;;;;;15.35;84.72;94716.69;1668193;85;21771;-51
2021/07/12 02:36:09;;;;;;;8.93;6.90;;;;;;;15.34;85.08;94714.52;1682328;83;21030;-51
2021/07/12 02:38:36;;;;;;;10.28;7.55;;;;;;;15.34;84.79;94717.29;1684056;84;21019;-51
2021/07/12 02:41:06;;;;;;;11.20;7.30;;;;;;;15.32;84.72;94722.55;1667701;84;21466;-51
2021/07/12 02:43:33;;;;;;;11.45;6.20;;;;;;;15.27;84.58;94720.42;1671096;83;21106;-51
2021/07/12 02:46:01;;;;;;;9.50;6.28;;;;;;;15.24;84.70;94724.16;1697925;83;21135;-51
2021/07/12 02:48:29;;;;;;;8.43;6.80;;;;;;;15.26;84.59;94727.81;1670197;85;21018;-50
2021/07/12 02:50:56;;;;;;;8.08;6.47;;;;;;;15.26;84.70;94724.44;1693564;83;20986;-50
2021/07/12 02:53:31;;;;;;;11.38;7.03;;;;;;;15.29;84.71;94727.67;1697072;83;20990;-51
2021/07/12 02:55:59;;;;;;;9.25;7.40;;;;;;;15.29;84.49;94723.51;1693518;83;21056;-50
2021/07/12 02:58:26;;;;;;;8.63;6.20;;;;;;;15.23;84.53;94726.78;1668710;84;21124;-51
2021/07/12 03:00:53;;;;;;;9.20;6.58;;;;;;;15.20;84.75;94722.17;1688903;83;20967;-51
2021/07/12 03:03:20;;;;;;;13.38;7.67;;;;;;;15.21;84.70;94722.31;1688477;83;21067;-50
2021/07/12 03:05:49;;;;;;;19.05;7.70;;;;;;;15.21;84.81;94721.56;1684718;84;21043;-52
2021/07/12 03:08:35;;;;;;;15.05;7.47;;;;;;;15.21;85.02;94718.16;1688034;84;20966;-50
2021/07/12 03:11:03;;;;;;;20.92;7.40;;;;;;;15.23;84.93;94729.55;1680214;84;21058;-48
2021/07/12 03:13:48;;;;;;;10.53;6.20;;;;;;;15.21;84.89;94736.17;1687426;83;20971;-52
2021/07/12 03:16:14;;;;;;;16.27;6.90;;;;;;;15.15;84.75;94732.55;1690834;83;20975;-51
2021/07/12 03:18:53;;;;;;;14.80;7.60;;;;;;;15.10;84.79;94737.38;1689772;83;21019;-51
2021/07/12 03:21:20;;;;;;;14.40;7.35;;;;;;;15.08;85.20;94739.86;1680038;84;21070;-53
2021/07/12 03:23:48;;;;;;;8.15;6.10;;;;;;;15.10;84.95;94734.60;1680031;84;21131;-53
2021/07/12 03:26:17;;;;;;;9.43;6.70;;;;;;;15.14;84.84;94740.72;1680723;84;20963;-53
2021/07/12 03:28:44;;;;;;;12.43;7.30;;;;;;;15.15;84.74;94738.72;1691108;84;21102;-53
2021/07/12 03:31:12;;;;;;;7.45;6.65;;;;;;;15.16;84.98;94735.45;1680952;84;21016;-54
2021/07/12 03:33:41;;;;;;;9.20;6.60;;;;;;;15.20;84.96;94734.64;1691338;83;21054;-53
2021/07/12 03:36:08;;;;;;;12.07;6.10;;;;;;;15.25;84.87;94731.23;1673006;84;21123;-52
2021/07/12 03:38:35;;;;;;;5.85;5.33;;;;;;;15.30;84.55;94736.13;1688531;83;21095;-53
2021/07/12 03:41:04;;;;;;;7.47;5.95;;;;;;;15.31;84.54;94734.10;1668974;84;21183;-53
2021/07/12 03:43:31;;;;;;;10.10;7.00;;;;;;;15.36;84.50;94732.81;1669544;85;21050;-58
2021/07/12 03:46:00;;;;;;;9.50;6.10;;;;;;;15.38;84.52;94734.49;1685553;84;21002;-53
2021/07/12 03:48:41;;;;;;;13.05;6.67;;;;;;;15.38;84.58;94727.56;1684638;83;21826;-53
2021/07/12 03:51:14;;;;;;;8.73;6.25;;;;;;;15.36;84.55;94729.30;1668283;85;21007;-55
2021/07/12 03:53:43;;;;;;;8.63;5.95;;;;;;;15.34;84.72;94735.95;1671587;84;21054;-61
2021/07/12 03:56:10;;;;;;;10.28;6.78;;;;;;;15.32;84.91;94730.87;1696174;83;21054;-54
2021/07/12 03:58:37;;;;;;;9.33;7.10;;;;;;;15.30;85.21;94734.74;1690486;84;21002;-53
2021/07/12 04:01:04;;;;;;;7.72;6.72;;;;;;;15.31;85.42;94734.88;1684935;84;21987;-54
2021/07/12 04:03:31;;;;;;;11.05;7.12;;;;;;;15.37;85.47;94734.34;1689409;83;21007;-55
2021/07/12 04:05:58;;;;;;;22.65;7.58;;;;;;;15.44;85.42;94736.76;1691843;83;21490;-54
2021/07/12 04:08:25;;;;;;;10.90;7.10;;;;;;;15.55;85.24;94736.17;1695077;83;20990;-54
2021/07/12 04:10:53;;;;;;;20.05;8.48;;;;;;;15.65;84.93;94734.81;1643602;84;20998;-54
2021/07/12 04:13:20;;;;;;;15.48;8.55;;;;;;;15.76;84.60;94728.81;1671437;83;21834;-54
2021/07/12 04:15:48;;;;;;;25.88;8.38;;;;;;;15.84;83.85;94727.20;1673976;85;21015;-55
2021/07/12 04:18:15;;;;;;;11.55;7.40;;;;;;;15.88;83.56;94729.14;1686242;83;20987;-55
2021/07/12 04:20:42;;;;;;;12.50;7.10;;;;;;;15.93;83.35;94720.77;1697520;83;21027;-54
2021/07/12 04:23:14;;;;;;;10.40;6.87;;;;;;;16.02;83.00;94721.41;1669249;84;20975;-56
2021/07/12 04:25:38;;;;;;;14.90;8.15;;;;;;;16.10;82.70;94721.14;1695372;83;21153;-54
2021/07/12 04:28:05;;;;;;;9.23;7.78;;;;;;;16.21;82.54;94726.86;1684815;84;21015;-55
2021/07/12 04:30:33;;;;;;;7.62;6.80;;;;;;;16.31;82.46;94729.02;1699207;83;21010;-53
2021/07/12 04:33:00;;;;;;;8.80;6.50;;;;;;;16.42;82.14;94722.88;1698212;83;21045;-54
2021/07/12 04:35:27;;;;;;;12.88;7.20;;;;;;;16.50;81.45;94717.05;1687053;83;21037;-54
2021/07/12 04:37:54;;;;;;;13.95;8.10;;;;;;;16.56;81.01;94718.64;1695447;83;21141;-54
2021/07/12 04:40:20;;;;;;;10.95;7.30;;;;;;;16.64;80.52;94717.00;1687431;83;21010;-54
2021/07/12 04:42:48;;;;;;;10.88;7.45;;;;;;;16.71;79.87;94713.04;1667191;84;33029;-55
2021/07/12 04:45:15;;;;;;;8.73;6.87;;;;;;;16.76;79.29;94717.89;1670231;84;20959;-55
2021/07/12 04:47:43;;;;;;;8.35;6.40;;;;;;;16.83;78.85;94716.06;1667119;84;21010;-54
2021/07/12 04:50:11;;;;;;;10.00;7.50;;;;;;;16.89;78.45;94714.88;1665323;83;21887;-52
2021/07/12 04:52:38;;;;;;;13.72;7.60;;;;;;;16.94;78.36;94713.42;1686580;84;21517;-54
2021/07/12 04:55:07;;;;;;;11.05;7.17;;;;;;;16.97;78.15;94709.66;1672082;84;21459;-56
2021/07/12 04:57:34;;;;;;;9.33;6.87;;;;;;;16.99;77.91;94712.71;1683586;83;21119;-55
2021/07/12 05:00:02;;;;;;;8.93;6.40;;;;;;;17.00;77.86;94712.84;1685081;83;20950;-56
2021/07/12 05:02:29;;;;;;;11.57;6.20;;;;;;;17.03;77.82;94709.09;1687353;84;21139;-56
2021/07/12 05:04:56;;;;;;;13.65;6.33;;;;;;;17.06;77.72;94708.13;1687176;83;20999;-55
2021/07/12 05:07:22;;;;;;;11.83;6.97;;;;;;;17.13;77.39;94711.22;1683437;84;20963;-56
2021/07/12 05:09:49;;;;;;;10.75;7.08;;;;;;;17.21;77.18;94705.98;1697004;83;21019;-55
2021/07/12 05:12:15;;;;;;;155.30;12.85;;;;;;;17.29;76.94;94706.45;1685463;83;20967;-55
2021/07/12 05:14:42;;;;;;;105.10;12.55;;;;;;;17.37;76.63;94707.59;1648824;86;21250;-56
2021/07/12 05:17:12;;;;;;;142.62;16.42;;;;;;;17.44;76.54;94709.17;1644881;86;21133;-55
2021/07/12 05:19:41;;;;;;;23.62;6.78;;;;;;;17.54;76.43;94704.94;1667168;85;21043;-54
2021/07/12 05:22:08;;;;;;;15.40;7.72;;;;;;;17.61;76.11;94705.91;1649613;85;21034;-55
2021/07/12 05:24:35;;;;;;;7.85;6.92;;;;;;;17.67;75.89;94703.28;1697740;83;20986;-54
2021/07/12 05:27:04;;;;;;;12.07;7.90;;;;;;;17.77;75.48;94699.69;1679299;83;21018;-58
2021/07/12 05:29:32;;;;;;;8.73;6.78;;;;;;;17.87;75.52;94706.61;1655074;86;21041;-57
2021/07/12 05:31:58;;;;;;;14.40;7.08;;;;;;;18.00;75.13;94702.79;1655424;86;21002;-55
2021/07/12 05:34:25;;;;;;;8.78;6.72;;;;;;;18.11;74.78;94708.41;1649022;87;21119;-55
2021/07/12 05:36:51;;;;;;;8.35;7.47;;;;;;;18.20;74.62;94700.02;1669419;84;21170;-56
2021/07/12 05:39:18;;;;;;;16.77;7.30;;;;;;;18.28;74.21;94696.91;1679605;84;21121;-56
2021/07/12 05:41:45;;;;;;;17.23;9.30;;;;;;;18.34;73.84;94696.33;1650720;84;21158;-55
2021/07/12 05:44:12;;;;;;;13.18;7.58;;;;;;;18.41;73.88;94691.67;1671699;84;21162;-56
2021/07/12 05:46:40;;;;;;;13.72;9.88;;;;;;;18.55;73.70;94691.35;1683372;84;20998;-56
2021/07/12 05:49:07;;;;;;;16.07;7.10;;;;;;;18.67;73.37;94695.08;1647241;84;21081;-56
2021/07/12 05:51:34;;;;;;;18.82;7.42;;;;;;;18.77;72.88;94692.22;1646001;85;22691;-57
2021/07/12 05:54:01;;;;;;;10.98;7.60;;;;;;;18.88;72.75;94696.45;1675593;84;21090;-56
2021/07/12 05:56:30;;;;;;;14.03;7.30;;;;;;;19.01;72.33;94694.59;1641396;86;21104;-59
2021/07/12 05:58:58;;;;;;;16.50;7.05;;;;;;;19.16;71.98;94695.14;1690363;82;21617;-60
2021/07/12 06:01:25;;;;;;;14.35;7.40;;;;;;;19.26;71.58;94693.03;1685375;82;21043;-55
2021/07/12 06:03:51;;;;;;;8.95;7.22;;;;;;;19.39;71.14;94689.10;1681841;83;21097;-55
2021/07/12 06:06:18;;;;;;;11.08;7.25;;;;;;;19.50;70.52;94686.95;1698932;83;21039;-56
2021/07/12 06:08:46;;;;;;;8.25;7.05;;;;;;;19.61;69.87;94688.37;1692047;82;22031;-56
2021/07/12 06:11:12;;;;;;;12.90;6.92;;;;;;;19.71;69.47;94684.82;1692932;83;21034;-57
2021/07/12 06:13:39;;;;;;;8.28;6.12;;;;;;;19.81;69.69;94684.70;1647294;83;21131;-58
2021/07/12 06:16:05;;;;;;;11.43;6.22;;;;;;;19.90;69.27;94684.44;1685540;82;21539;-55
2021/07/12 06:18:32;;;;;;;10.15;6.22;;;;;;;20.02;68.96;94690.80;1689856;82;21018;-56
2021/07/12 06:20:59;;;;;;;8.70;6.35;;;;;;;20.15;68.36;94687.59;1693428;82;21497;-55
2021/07/12 06:23:26;;;;;;;10.43;6.40;;;;;;;20.26;68.10;94680.61;1681489;83;21017;-55
2021/07/12 06:25:53;;;;;;;12.75;7.20;;;;;;;20.37;67.70;94684.13;1695229;82;21021;-57
2021/07/12 06:28:20;;;;;;;13.18;7.03;;;;;;;20.45;66.58;94680.17;1679774;83;21067;-58
2021/07/12 06:30:47;;;;;;;8.85;7.37;;;;;;;20.54;66.04;94678.52;1698580;82;21163;-57
2021/07/12 06:33:14;;;;;;;9.30;7.12;;;;;;;20.62;65.51;94686.48;1691328;83;21070;-56
2021/07/12 06:35:40;;;;;;;10.93;6.75;;;;;;;20.68;64.89;94678.83;1691834;83;20931;-57
2021/07/12 06:38:07;;;;;;;7.60;6.60;;;;;;;20.75;64.87;94671.31;1691508;82;21125;-57
2021/07/12 06:40:34;;;;;;;8.48;6.67;;;;;;;20.83;64.84;94670.30;1683784;82;21085;-56
2021/07/12 06:43:00;;;;;;;8.13;7.10;;;;;;;20.94;64.37;94670.23;1686671;83;22472;-56
2021/07/12 06:45:28;;;;;;;12.07;6.95;;;;;;;21.04;63.80;94669.28;1699057;83;21041;-55
2021/07/12 06:47:55;;;;;;;13.40;7.10;;;;;;;21.16;63.97;94667.95;1691216;83;22227;-55
2021/07/12 06:50:22;;;;;;;8.15;6.00;;;;;;;21.30;63.99;94660.61;1673122;83;21076;-59
2021/07/12 06:52:49;;;;;;;11.35;7.08;;;;;;;21.47;64.26;94667.52;1687446;83;21145;-60
2021/07/12 06:55:17;;;;;;;8.65;7.30;;;;;;;21.60;63.46;94667.66;1685244;83;21139;-56
2021/07/12 06:57:43;;;;;;;13.30;8.03;;;;;;;21.74;63.56;94663.77;1686470;83;21010;-57
2021/07/12 07:00:12;;;;;;;14.25;8.08;;;;;;;21.91;63.45;94667.19;1687922;83;21327;-59
2021/07/12 07:02:41;;;;;;;7.42;6.67;;;;;;;22.05;62.66;94657.77;1681293;82;21073;-59
2021/07/12 07:05:09;;;;;;;12.70;11.40;;;;;;;22.23;61.92;94657.08;1662319;84;21143;-57
2021/07/12 07:07:36;;;;;;;12.23;7.25;;;;;;;22.39;61.75;94654.78;1607941;86;21072;-58
2021/07/12 07:10:05;;;;;;;8.05;6.67;;;;;;;22.51;61.27;94654.76;1696876;83;21954;-56
2021/07/12 07:12:35;;;;;;;11.03;8.03;;;;;;;22.60;60.93;94651.61;1710664;82;21207;-57
2021/07/12 07:15:02;;;;;;;14.20;10.70;;;;;;;22.69;60.55;94650.49;1694009;83;21194;-57
2021/07/12 07:17:29;;;;;;;11.30;7.42;;;;;;;22.75;60.24;94654.75;1690369;82;21111;-60
2021/07/12 07:19:58;;;;;;;8.85;7.22;;;;;;;22.81;60.21;94648.42;1679569;83;21728;-58
2021/07/12 07:22:24;;;;;;;7.90;7.10;;;;;;;22.90;60.06;94648.06;1686594;83;20982;-56
2021/07/12 07:24:55;;;;;;;7.15;6.47;;;;;;;22.99;59.88;94649.74;1689333;82;22144;-55
2021/07/12 07:27:22;;;;;;;12.03;10.58;;;;;;;23.10;59.50;94646.77;1663307;83;21078;-56
2021/07/12 07:29:48;;;;;;;8.78;7.80;;;;;;;23.21;59.31;94644.59;1695372;82;21150;-55
2021/07/12 07:32:17;;;;;;;10.32;7.40;;;;;;;23.30;59.40;94633.00;1696597;83;21482;-58
2021/07/12 07:34:44;;;;;;;8.90;7.42;;;;;;;23.43;59.50;94638.66;1685772;83;21063;-58
2021/07/12 07:37:11;;;;;;;9.83;6.87;;;;;;;23.62;59.63;94629.58;1708224;82;20977;-55
2021/07/12 07:39:39;;;;;;;10.35;7.45;;;;;;;23.77;59.29;94631.23;1664595;84;21079;-57
2021/07/12 07:42:06;;;;;;;10.78;6.72;;;;;;;23.93;58.97;94630.23;1683723;83;21491;-60
2021/07/12 07:44:33;;;;;;;8.05;7.08;;;;;;;24.09;58.77;94627.78;1684524;83;21125;-59
2021/07/12 07:47:02;;;;;;;8.65;7.12;;;;;;;24.26;57.59;94626.84;1688086;83;21089;-57
2021/07/12 07:49:31;;;;;;;14.75;6.97;;;;;;;24.40;57.05;94625.56;1673939;83;21084;-58
2021/07/12 07:51:58;;;;;;;14.00;7.55;;;;;;;24.50;56.85;94620.37;1681033;83;21843;-57
2021/07/12 07:54:25;;;;;;;6.55;5.95;;;;;;;24.61;56.78;94619.42;1686036;83;21753;-57
2021/07/12 07:56:52;;;;;;;11.53;7.03;;;;;;;24.74;56.94;94619.42;1679038;83;21033;-56
2021/07/12 07:59:19;;;;;;;9.33;6.70;;;;;;;24.88;55.25;94619.49;1668965;82;21066;-60
2021/07/12 08:01:46;;;;;;;11.35;8.90;;;;;;;25.02;55.62;94609.73;1691400;83;20955;-58
2021/07/12 08:04:13;;;;;;;10.13;6.70;;;;;;;25.19;55.01;94614.38;1687107;83;21101;-57
2021/07/12 08:06:41;;;;;;;8.18;6.20;;;;;;;25.36;55.07;94602.09;1678591;83;21069;-59
2021/07/12 08:09:10;;;;;;;6.50;5.87;;;;;;;25.53;54.97;94599.65;1701732;83;21048;-61
2021/07/12 08:11:40;;;;;;;7.90;5.95;;;;;;;25.69;55.78;94606.95;1682502;84;21023;-61
2021/07/12 08:14:08;;;;;;;6.62;6.03;;;;;;;25.84;54.37;94606.46;1692097;83;22037;-56
2021/07/12 08:16:37;;;;;;;10.15;6.72;;;;;;;25.97;53.86;94601.50;1689626;83;21088;-56
2021/07/12 08:19:04;;;;;;;9.13;5.50;;;;;;;26.14;54.17;94600.42;1698131;82;21214;-57
2021/07/12 08:21:31;;;;;;;10.38;8.18;;;;;;;26.28;52.78;94597.63;1688654;83;22128;-61
2021/07/12 08:23:59;;;;;;;7.50;6.08;;;;;;;26.44;52.81;94593.59;1695015;83;21371;-57
2021/07/12 08:26:26;;;;;;;6.95;5.80;;;;;;;26.59;51.21;94595.78;1694142;83;21241;-59
2021/07/12 08:28:53;;;;;;;11.90;6.20;;;;;;;26.70;50.42;94594.07;1652187;85;21064;-56
2021/07/12 08:31:22;;;;;;;9.05;6.10;;;;;;;26.82;50.08;94592.45;1680825;83;21034;-55
2021/07/12 08:33:49;;;;;;;9.15;6.08;;;;;;;26.93;50.26;94581.59;1678099;83;21170;-56
2021/07/12 08:36:18;;;;;;;6.75;6.05;;;;;;;27.01;49.59;94590.84;1686819;83;21112;-62
2021/07/12 08:38:45;;;;;;;8.83;5.45;;;;;;;27.11;49.18;94584.80;1683401;83;22109;-61
2021/07/12 08:41:17;;;;;;;10.63;5.90;;;;;;;27.25;48.57;94585.41;1688555;83;22190;-59
2021/07/12 08:43:47;;;;;;;11.88;6.45;;;;;;;27.35;47.38;94584.31;1687191;82;21542;-59
2021/07/12 08:46:14;;;;;;;15.50;6.37;;;;;;;27.46;46.88;94584.62;1679362;83;21066;-55
2021/07/12 08:48:41;;;;;;;10.08;5.83;;;;;;;27.56;47.90;94586.34;1679939;83;20935;-61
2021/07/12 08:51:08;;;;;;;12.37;6.45;;;;;;;27.69;47.86;94582.59;1674668;83;21006;-58
2021/07/12 08:53:37;;;;;;;11.35;6.37;;;;;;;27.81;47.33;94585.19;1675786;82;21121;-61
2021/07/12 08:56:05;;;;;;;11.60;6.75;;;;;;;27.92;45.97;94577.09;1688038;82;21788;-63
2021/07/12 08:58:34;;;;;;;7.28;6.03;;;;;;;28.02;44.70;94578.05;1685161;83;21101;-63
2021/07/12 09:01:06;;;;;;;7.60;5.58;;;;;;;28.09;46.20;94586.55;1682763;83;21096;-59
2021/07/12 09:03:34;;;;;;;;;;;;;;;28.19;45.41;94578.24;1683372;83;21053;-55
2021/07/12 09:06:08;;;;;;;7.20;5.65;;;;;;;28.28;45.96;94580.48;1681057;82;20181;-54
2021/07/12 09:08:54;;;;;;;7.78;6.20;;;;;;;28.34;44.58;94581.07;1680819;83;21173;-56
2021/07/12 09:11:31;;;;;;;10.10;6.37;;;;;;;28.40;45.83;94575.98;1667935;83;21048;-54
2021/07/12 09:14:10;;;;;;;7.83;5.72;;;;;;;28.47;44.99;94574.56;1678163;83;21038;-57
2021/07/12 09:16:56;;;;;;;7.33;5.22;;;;;;;28.58;44.57;94573.41;1685215;83;21172;-55
2021/07/12 09:19:32;;;;;;;8.33;6.60;;;;;;;28.69;45.45;94581.48;1676011;83;21023;-56
2021/07/12 09:22:13;;;;;;;8.05;6.22;;;;;;;28.76;45.32;94577.22;1696034;83;21666;-55
2021/07/12 09:24:53;;;;;;;8.10;6.78;;;;;;;28.86;44.80;94574.55;1697878;83;21057;-55
2021/07/12 09:27:23;;;;;;;8.38;6.05;;;;;;;28.97;46.12;94576.34;1679325;83;21113;-54
2021/07/12 09:29:52;;;;;;;8.05;6.35;;;;;;;29.08;44.31;94579.41;1677690;83;21435;-54
2021/07/12 09:32:22;;;;;;;8.28;5.87;;;;;;;29.14;45.01;94575.05;1705668;82;21350;-55
2021/07/12 09:34:52;;;;;;;7.33;6.40;;;;;;;29.27;44.94;94579.71;1684276;83;21306;-53
2021/07/12 09:37:19;;;;;;;8.40;6.03;;;;;;;29.38;44.26;94578.64;1694509;83;21053;-53
2021/07/12 09:39:52;;;;;;;8.58;6.35;;;;;;;29.50;44.63;94573.31;1691282;83;21113;-54
2021/07/12 09:42:28;;;;;;;6.97;6.28;;;;;;;29.56;42.14;94569.59;1685698;83;21227;-54
2021/07/12 09:44:56;;;;;;;7.25;5.70;;;;;;;29.57;41.79;94576.11;1674108;83;21041;-54
2021/07/12 09:47:27;;;;;;;11.05;7.10;;;;;;;29.62;42.48;94565.86;1697561;82;21131;-54
2021/07/12 09:50:09;;;;;;;8.33;6.00;;;;;;;29.72;42.23;94565.33;1679105;83;21444;-59
2021/07/12 09:52:43;;;;;;;7.55;5.70;;;;;;;29.84;43.47;94564.98;1659373;83;21091;-57
2021/07/12 09:55:26;;;;;;;10.48;5.75;;;;;;;29.94;43.71;94561.66;1685141;83;21680;-56
2021/07/12 09:58:16;;;;;;;6.80;6.12;;;;;;;30.06;42.89;94559.14;1689186;82;21064;-62
2021/07/12 10:00:55;;;;;;;5.97;5.25;;;;;;;30.08;41.17;94555.83;1677957;82;21138;-61
2021/07/12 10:03:22;;;;;;;8.08;6.25;;;;;;;30.11;42.21;94556.76;1687378;83;20968;-51
2021/07/12 10:05:51;;;;;;;6.55;5.50;;;;;;;30.14;42.54;94552.08;1689151;83;21106;-56
2021/07/12 10:08:18;;;;;;;9.98;6.42;;;;;;;30.19;42.88;94549.69;1687538;83;21141;-57
2021/07/12 10:10:45;;;;;;;12.00;6.35;;;;;;;30.26;43.01;94550.28;1684601;83;21079;-55
2021/07/12 10:13:15;;;;;;;8.00;5.60;;;;;;;30.32;42.39;94547.94;1686718;83;21062;-55
2021/07/12 10:15:45;;;;;;;10.08;5.80;;;;;;;30.45;42.32;94544.80;1660661;84;21079;-54
2021/07/12 10:18:12;;;;;;;7.22;6.08;;;;;;;30.54;41.94;94539.87;1701072;82;21109;-51
2021/07/12 10:20:38;;;;;;;5.87;5.37;;;;;;;30.64;41.70;94540.75;1680388;83;21080;-53
2021/07/12 10:23:08;;;;;;;6.47;5.67;;;;;;;30.71;40.43;94527.13;1679279;83;21165;-54
2021/07/12 10:25:36;;;;;;;11.75;6.78;;;;;;;30.77;41.91;94530.48;1696447;82;21799;-52
2021/07/12 10:28:08;;;;;;;7.87;6.90;;;;;;;30.69;41.40;94538.33;1703444;83;22160;-52
2021/07/12 10:30:44;;;;;;;7.28;5.60;;;;;;;30.51;41.04;94538.20;1676818;83;21046;-52
2021/07/12 10:33:14;;;;;;;11.70;6.00;;;;;;;30.29;41.67;94538.44;1695881;83;21131;-53
2021/07/12 10:35:54;;;;;;;7.97;6.62;;;;;;;30.26;42.95;94545.25;1700422;83;20986;-54
2021/07/12 10:38:31;;;;;;;7.42;6.47;;;;;;;30.51;43.32;94541.03;1688700;83;21101;-53
2021/07/12 10:41:01;;;;;;;10.18;6.72;;;;;;;30.80;41.85;94535.00;1680828;83;21106;-53
2021/07/12 10:43:47;;;;;;;8.48;6.47;;;;;;;30.92;42.20;94543.11;1683800;83;21056;-54
2021/07/12 10:46:30;;;;;;;6.30;5.70;;;;;;;30.83;40.53;94549.45;1678233;83;21101;-54
2021/07/12 10:49:06;;;;;;;8.88;6.10;;;;;;;30.54;40.62;94544.13;1698296;83;21518;-54
2021/07/12 10:51:37;;;;;;;6.70;5.55;;;;;;;30.17;40.25;94540.97;1706052;82;21129;-53
2021/07/12 10:54:16;;;;;;;7.87;5.80;;;;;;;29.94;40.91;94538.97;1679436;83;22019;-58
2021/07/12 10:56:57;;;;;;;9.65;6.85;;;;;;;29.74;41.07;94530.05;1700032;83;21293;-59
2021/07/12 10:59:38;;;;;;;8.23;6.90;;;;;;;29.50;40.82;94530.78;1703020;83;21045;-56
2021/07/12 11:02:19;;;;;;;11.60;6.55;;;;;;;29.26;41.49;94530.78;1683091;83;21071;-60
2021/07/12 11:04:50;;;;;;;8.70;6.85;;;;;;;29.04;42.59;94535.14;1626034;86;22023;-62
2021/07/12 11:07:17;;;;;;;8.30;6.33;;;;;;;28.81;42.97;94528.78;1667657;83;21395;-56
2021/07/12 11:09:50;;;;;;;7.67;6.83;;;;;;;28.64;43.35;94527.23;1681882;83;21602;-57
2021/07/12 11:12:44;;;;;;;13.00;6.40;;;;;;;28.51;43.27;94523.20;1701628;83;21006;-57
2021/07/12 11:15:26;;;;;;;8.33;6.22;;;;;;;28.40;43.83;94518.70;1696589;82;21089;-62
2021/07/12 11:18:10;;;;;;;7.60;6.80;;;;;;;28.26;44.58;94522.29;1690835;83;21204;-60
2021/07/12 11:20:51;;;;;;;9.38;6.85;;;;;;;28.17;44.62;94518.61;1696296;83;21565;-61
2021/07/12 11:23:43;;;;;;;8.95;6.45;;;;;;;28.09;44.29;94505.91;1691741;83;21699;-60
2021/07/12 11:26:27;;;;;;;9.90;6.28;;;;;;;28.06;44.72;94509.84;1686182;83;21047;-63
2021/07/12 11:29:01;;;;;;;7.08;6.35;;;;;;;28.05;44.36;94509.76;1680141;83;21098;-58
2021/07/12 11:31:57;;;;;;;9.18;6.22;;;;;;;28.11;45.28;94499.67;1692250;83;21150;-63
2021/07/12 11:34:42;;;;;;;7.65;6.40;;;;;;;28.27;44.85;94503.98;1690514;83;21141;-62
2021/07/12 11:37:19;;;;;;;11.38;6.70;;;;;;;29.01;44.96;94500.88;1681310;82;21383;-59
2021/07/12 11:39:59;;;;;;;7.83;5.97;;;;;;;29.88;41.40;94497.31;1696065;82;21650;-70
2021/07/12 11:42:32;;;;;;;8.90;6.10;;;;;;;30.73;40.39;94497.48;1684371;83;21078;-62
2021/07/12 11:45:11;;;;;;;;;;;;;;;31.44;38.86;94497.61;1688080;83;21810;-64
2021/07/12 11:47:49;;;;;;;6.15;5.22;;;;;;;32.15;38.97;94502.61;1689214;83;20242;-58